createdAt,value
2019-02-20T00:00:08.222Z,4.36
2019-02-20T00:05:06.984Z,4.23
2019-02-20T00:10:06.394Z,4.69
2019-02-20T00:15:07.324Z,4.86
2019-02-20T00:20:06.163Z,4.91
2019-02-20T00:25:07.058Z,5.01
2019-02-20T00:29:07.116Z,4.97
2019-02-20T00:34:08.164Z,4.77
2019-02-20T00:39:06.525Z,4.66
2019-02-20T00:44:06.314Z,4.5
2019-02-20T00:49:06.226Z,4.51
2019-02-20T00:54:06.136Z,4.54
2019-02-20T00:59:06.150Z,4.98
2019-02-20T01:04:06.160Z,4.79
2019-02-20T01:08:06.404Z,5.06
2019-02-20T01:13:06.713Z,4.91
2019-02-20T01:18:06.516Z,4.72
2019-02-20T01:23:06.407Z,4.88
2019-02-20T01:28:06.526Z,4.63
2019-02-20T01:33:06.631Z,4.63
2019-02-20T01:38:06.363Z,4.81
2019-02-20T01:43:06.904Z,4.56
2019-02-20T01:47:06.483Z,4.41
2019-02-20T01:52:06.247Z,4.39
2019-02-20T01:57:06.146Z,3.98
2019-02-20T02:02:08.067Z,3.63
2019-02-20T02:07:08.133Z,3.35
2019-02-20T02:12:07.162Z,3.32
2019-02-20T02:17:06.955Z,3.1
2019-02-20T02:21:06.861Z,2.89
2019-02-20T02:26:10.774Z,2.91
2019-02-20T02:31:06.681Z,3.05
2019-02-20T02:36:06.637Z,3.69
2019-02-20T02:41:06.919Z,3.73
2019-02-20T02:46:06.903Z,3.8
2019-02-20T02:51:06.957Z,3.7
2019-02-20T02:56:06.920Z,3.79
2019-02-20T03:00:08.496Z,3.75
2019-02-20T03:05:06.173Z,3.89
2019-02-20T03:10:06.824Z,4.01
2019-02-20T03:15:08.465Z,3.88
2019-02-20T03:20:06.235Z,3.68
2019-02-20T03:25:06.187Z,3.45
2019-02-20T03:30:07.847Z,3.31
2019-02-20T03:34:08.880Z,3.27
2019-02-20T03:39:07.677Z,3.24
2019-02-20T03:40:06.831Z,3.24
2019-02-20T03:44:06.897Z,3.16
2019-02-20T03:49:06.546Z,3.43
2019-02-20T03:54:06.563Z,3.57
2019-02-20T03:59:06.517Z,3.73
2019-02-20T04:04:06.801Z,3.83
2019-02-20T04:09:07.219Z,3.85
2019-02-20T04:13:06.200Z,3.9
2019-02-20T04:18:06.834Z,3.88
2019-02-20T04:23:06.797Z,3.93
2019-02-20T04:28:06.754Z,3.9
2019-02-20T04:33:06.770Z,3.88
2019-02-20T04:38:06.752Z,4.07
2019-02-20T04:43:06.314Z,3.88
2019-02-20T04:48:06.898Z,3.72
2019-02-20T04:52:06.867Z,3.55
2019-02-20T04:57:06.947Z,3.71
2019-02-20T05:02:06.288Z,3.99
2019-02-20T05:07:06.241Z,4.13
2019-02-20T05:12:06.728Z,4.05
2019-02-20T05:17:06.704Z,3.92
2019-02-20T05:22:06.726Z,3.89
2019-02-20T05:27:06.305Z,4.07
2019-02-20T05:31:06.738Z,4.15
2019-02-20T05:36:06.655Z,4.31
2019-02-20T05:41:06.051Z,4.33
2019-02-20T05:46:06.812Z,4.33
2019-02-20T05:51:06.507Z,4.41
2019-02-20T05:56:06.483Z,4.43
2019-02-20T06:01:06.976Z,4.32
2019-02-20T06:06:06.971Z,4.2
2019-02-20T06:10:06.424Z,3.97
2019-02-20T06:15:07.745Z,3.65
2019-02-20T06:20:06.802Z,3.63
2019-02-20T06:25:06.742Z,3.68
2019-02-20T06:30:08.281Z,3.74
2019-02-20T06:35:06.466Z,3.69
2019-02-20T06:40:06.830Z,3.62
2019-02-20T06:45:07.824Z,3.71
2019-02-20T06:49:06.968Z,3.79
2019-02-20T06:54:06.728Z,3.68
2019-02-20T06:59:06.551Z,3.71
2019-02-20T07:04:06.394Z,3.73
2019-02-20T07:09:06.656Z,3.89
2019-02-20T07:14:06.513Z,3.94
2019-02-20T07:19:06.247Z,4.09
2019-02-20T07:24:06.276Z,4.28
2019-02-20T07:28:06.638Z,4.48
2019-02-20T07:33:06.467Z,4.59
2019-02-20T07:38:06.319Z,4.72
2019-02-20T07:43:06.524Z,5.01
2019-02-20T07:48:06.223Z,5.43
2019-02-20T07:53:06.117Z,5.75
2019-02-20T07:58:06.994Z,6.08
2019-02-20T08:03:06.086Z,6.33
2019-02-20T08:07:06.429Z,6.51
2019-02-20T08:12:06.667Z,6.59
2019-02-20T08:17:06.423Z,6.58
2019-02-20T08:22:06.502Z,6.69
2019-02-20T08:27:06.386Z,6.93
2019-02-20T08:32:06.397Z,6.89
2019-02-20T08:37:06.378Z,6.91
2019-02-20T08:41:07.430Z,6.94
2019-02-20T08:46:06.416Z,7.05
2019-02-20T08:51:06.381Z,7.11
2019-02-20T08:56:06.298Z,7.33
2019-02-20T09:01:06.434Z,7.38
2019-02-20T09:06:06.585Z,7.38
2019-02-20T09:11:06.101Z,7.39
2019-02-20T09:15:07.406Z,7.42
2019-02-20T09:20:06.901Z,7.39
2019-02-20T09:25:06.693Z,7.34
2019-02-20T09:30:07.885Z,7.45
2019-02-20T09:35:06.006Z,7.59
2019-02-20T09:40:06.201Z,7.58
2019-02-20T09:45:08.867Z,7.64
2019-02-20T09:50:06.358Z,7.89
2019-02-20T09:54:07.055Z,8.15
2019-02-20T09:59:07.005Z,8.44
2019-02-20T10:04:06.184Z,8.74
2019-02-20T10:09:07.571Z,8.81
2019-02-20T10:14:06.298Z,8.37
2019-02-20T10:19:06.216Z,8.44
2019-02-20T10:24:06.138Z,8.32
2019-02-20T10:28:07.013Z,8.37
2019-02-20T10:33:06.666Z,8.19
2019-02-20T10:38:06.415Z,8.33
2019-02-20T10:43:06.690Z,8.41
2019-02-20T10:48:06.653Z,8.7
2019-02-20T10:53:06.456Z,9.39
2019-02-20T10:58:06.158Z,9.5
2019-02-20T11:03:06.130Z,9.46
2019-02-20T11:07:06.006Z,8.9
2019-02-20T11:12:06.300Z,9.59
2019-02-20T11:13:06.422Z,9.59
2019-02-20T11:17:06.151Z,9.62
2019-02-20T11:22:07.340Z,9.75
2019-02-20T11:27:06.857Z,9.95
2019-02-20T11:32:06.522Z,9.94
2019-02-20T11:37:06.258Z,9.79
2019-02-20T11:42:06.586Z,9.97
2019-02-20T11:46:06.813Z,10.05
2019-02-20T11:51:06.552Z,10.12
2019-02-20T11:56:06.406Z,10.18
2019-02-20T12:01:06.680Z,9.96
2019-02-20T12:06:06.520Z,9.8
2019-02-20T12:11:06.824Z,9.45
2019-02-20T12:16:06.492Z,10
2019-02-20T12:21:06.923Z,11.81
2019-02-20T12:25:06.815Z,10.72
2019-02-20T12:30:08.166Z,10.84
2019-02-20T12:35:06.189Z,11.6
2019-02-20T12:40:06.468Z,10.81
2019-02-20T12:45:07.659Z,11.56
2019-02-20T12:50:06.813Z,11.13
2019-02-20T12:55:06.586Z,10.4
2019-02-20T12:59:07.874Z,10.07
2019-02-20T13:04:06.160Z,10.11
2019-02-20T13:09:07.306Z,10.35
2019-02-20T13:14:06.255Z,10.34
2019-02-20T13:19:06.127Z,10.24
2019-02-20T13:24:06.201Z,10.18
2019-02-20T13:29:06.211Z,10.34
2019-02-20T13:33:06.306Z,10.94
2019-02-20T13:38:06.542Z,10.74
2019-02-20T13:43:06.586Z,10.56
2019-02-20T13:48:06.687Z,10.13
2019-02-20T13:53:06.831Z,10.08
2019-02-20T13:58:06.868Z,10.12
2019-02-20T14:03:06.238Z,10.16
2019-02-20T14:07:06.564Z,10.04
2019-02-20T14:12:07.275Z,9.96
2019-02-20T14:17:07.038Z,9.88
2019-02-20T14:22:07.835Z,9.8
2019-02-20T14:27:10.642Z,9.88
2019-02-20T14:32:06.159Z,9.92
2019-02-20T14:37:06.035Z,9.86
2019-02-20T14:41:06.316Z,9.77
2019-02-20T14:46:06.164Z,9.78
2019-02-20T14:47:06.265Z,9.78
2019-02-20T14:51:06.250Z,9.7
2019-02-20T14:56:06.136Z,9.67
2019-02-20T15:01:06.230Z,9.64
2019-02-20T15:06:06.129Z,9.55
2019-02-20T15:11:06.471Z,9.52
2019-02-20T15:16:06.156Z,9.45
2019-02-20T15:20:06.542Z,9.29
2019-02-20T15:25:06.480Z,9.26
2019-02-20T15:30:07.358Z,9.27
2019-02-20T15:35:06.118Z,9.22
2019-02-20T15:40:06.398Z,9.06
2019-02-20T15:45:07.315Z,9.04
2019-02-20T15:50:07.052Z,9.24
2019-02-20T15:54:06.985Z,9.03
2019-02-20T15:55:06.117Z,9.03
2019-02-20T15:59:06.159Z,8.89
2019-02-20T16:04:07.208Z,8.72
2019-02-20T16:09:06.748Z,8.67
2019-02-20T16:14:06.731Z,8.65
2019-02-20T16:19:06.312Z,8.5
2019-02-20T16:24:06.314Z,8.43
2019-02-20T16:28:06.243Z,8.18
2019-02-20T16:33:06.254Z,8.09
2019-02-20T16:38:06.160Z,7.89
2019-02-20T16:43:06.485Z,7.83
2019-02-20T16:48:06.349Z,7.37
2019-02-20T16:53:06.466Z,7.26
2019-02-20T16:58:06.265Z,7.55
2019-02-20T17:02:07.039Z,7.81
2019-02-20T17:07:06.948Z,7.64
2019-02-20T17:12:06.230Z,7.69
2019-02-20T17:17:06.192Z,7.54
2019-02-20T17:22:06.067Z,7.62
2019-02-20T17:27:06.996Z,7.35
2019-02-20T17:32:06.887Z,7.07
2019-02-20T17:36:06.909Z,6.61
2019-02-20T17:41:06.630Z,6.1
2019-02-20T17:46:06.467Z,5.56
2019-02-20T17:51:06.312Z,5.05
2019-02-20T17:56:06.020Z,4.88
2019-02-20T18:01:06.143Z,4.68
2019-02-20T18:06:06.998Z,4.56
2019-02-20T18:11:07.465Z,4.57
2019-02-20T18:15:08.246Z,4.76
2019-02-20T18:20:06.634Z,4.92
2019-02-20T18:25:06.583Z,4.92
2019-02-20T18:30:07.815Z,4.87
2019-02-20T18:35:06.744Z,4.77
2019-02-20T18:40:06.200Z,4.58
2019-02-20T18:45:07.593Z,4.68
2019-02-20T18:49:06.587Z,4.87
2019-02-20T18:54:06.564Z,5.04
2019-02-20T18:59:06.352Z,5.06
2019-02-20T19:04:08.059Z,5.02
2019-02-20T19:09:06.655Z,4.76
2019-02-20T19:14:08.986Z,4.43
2019-02-20T19:19:07.071Z,4.56
2019-02-20T19:23:06.312Z,4.34
2019-02-20T19:28:06.319Z,4.08
2019-02-20T19:33:06.078Z,4.1
2019-02-20T19:38:06.710Z,4.05
2019-02-20T19:43:06.835Z,3.92
2019-02-20T19:48:06.542Z,3.78
2019-02-20T19:53:06.465Z,3.64
2019-02-20T19:58:06.453Z,3.58
2019-02-20T20:02:07.466Z,3.57
2019-02-20T20:07:06.423Z,3.45
2019-02-20T20:12:06.908Z,3.02
2019-02-20T20:17:06.642Z,2.67
2019-02-20T20:22:06.530Z,2.46
2019-02-20T20:27:06.424Z,2.39
2019-02-20T20:32:06.165Z,2.71
2019-02-20T20:36:06.355Z,2.95
2019-02-20T20:41:09.091Z,3.12
2019-02-20T20:46:06.205Z,3.32
2019-02-20T20:51:06.215Z,3.41
2019-02-20T20:56:06.148Z,3.43
2019-02-20T21:01:06.579Z,3.45
2019-02-20T21:06:06.398Z,3.62
2019-02-20T21:11:06.089Z,3.65
2019-02-20T21:15:07.744Z,3.65
2019-02-20T21:20:06.355Z,3.64
2019-02-20T21:25:06.304Z,3.71
2019-02-20T21:30:07.469Z,3.64
2019-02-20T21:35:06.705Z,3.6
2019-02-20T21:40:06.820Z,3.49
2019-02-20T21:45:08.163Z,3.45
2019-02-20T21:49:06.410Z,3.39
2019-02-20T21:54:06.459Z,3.44
2019-02-20T21:59:06.326Z,3.68
2019-02-20T22:04:06.591Z,3.76
2019-02-20T22:09:06.749Z,3.9
2019-02-20T22:14:06.646Z,3.98
2019-02-20T22:19:06.106Z,4.01
2019-02-20T22:24:06.044Z,3.97
2019-02-20T22:28:06.817Z,3.92
2019-02-20T22:33:06.178Z,3.88
2019-02-20T22:38:06.891Z,3.67
2019-02-20T22:43:06.145Z,3.61
2019-02-20T22:48:07.019Z,3.56
2019-02-20T22:53:06.815Z,3.61
2019-02-20T22:58:06.590Z,3.58
2019-02-20T23:03:06.128Z,3.67
2019-02-20T23:07:07.458Z,3.65
2019-02-20T23:12:06.839Z,3.62
2019-02-20T23:17:06.771Z,3.67
2019-02-20T23:22:06.568Z,3.63
2019-02-20T23:27:06.417Z,3.57
2019-02-20T23:32:06.183Z,3.59
2019-02-20T23:37:06.161Z,3.53
2019-02-20T23:41:06.961Z,3.62
2019-02-20T23:46:07.065Z,3.68
2019-02-20T23:51:06.191Z,3.6
2019-02-20T23:56:06.658Z,3.39
